createdAt,value
2022-12-26T00:01:29.930Z,1.16
2022-12-26T00:03:02.025Z,1.17
2022-12-26T00:04:51.799Z,1.13
2022-12-26T00:06:27.916Z,1.16
2022-12-26T00:07:59.901Z,1.11
2022-12-26T00:09:36.141Z,1.10
2022-12-26T00:11:08.219Z,1.09
2022-12-26T00:12:40.217Z,1.00
2022-12-26T00:14:17.380Z,0.93
2022-12-26T00:15:49.609Z,0.85
2022-12-26T00:17:21.846Z,0.88
2022-12-26T00:18:54.845Z,0.90
2022-12-26T00:20:26.844Z,0.86
2022-12-26T00:21:58.903Z,0.78
2022-12-26T00:23:32.558Z,0.75
2022-12-26T00:25:04.497Z,0.73
2022-12-26T00:26:37.297Z,0.64
2022-12-26T00:28:09.349Z,0.62
2022-12-26T00:29:41.310Z,0.64
2022-12-26T00:31:19.693Z,0.73
2022-12-26T00:32:51.706Z,0.70
2022-12-26T00:34:23.687Z,0.72
2022-12-26T00:36:04.240Z,0.78
2022-12-26T00:37:36.302Z,0.75
2022-12-26T00:39:08.319Z,0.78
2022-12-26T00:40:45.251Z,0.77
2022-12-26T00:42:17.269Z,0.76
2022-12-26T00:43:49.695Z,0.78
2022-12-26T00:45:21.995Z,0.73
2022-12-26T00:46:54.366Z,0.72
2022-12-26T00:48:26.453Z,0.71
2022-12-26T00:50:14.589Z,0.69
2022-12-26T00:51:47.606Z,0.68
2022-12-26T00:53:20.201Z,0.70
2022-12-26T00:54:52.185Z,0.68
2022-12-26T00:56:24.226Z,0.68
2022-12-26T00:57:56.252Z,0.68
2022-12-26T00:59:28.358Z,0.71
2022-12-26T01:01:15.299Z,0.73
2022-12-26T01:02:47.727Z,0.69
2022-12-26T01:04:19.804Z,0.66
2022-12-26T01:05:52.260Z,0.58
2022-12-26T01:07:24.279Z,0.48
2022-12-26T01:08:56.391Z,0.39
2022-12-26T01:10:28.571Z,0.31
2022-12-26T01:12:00.570Z,0.23
2022-12-26T01:13:32.755Z,0.26
2022-12-26T01:15:06.776Z,0.31
2022-12-26T01:16:39.872Z,0.32
2022-12-26T01:18:11.969Z,0.32
2022-12-26T01:19:44.035Z,0.36
2022-12-26T01:21:15.979Z,0.36
2022-12-26T01:22:47.935Z,0.39
2022-12-26T01:24:19.993Z,0.40
2022-12-26T01:26:18.773Z,0.35
2022-12-26T01:27:43.999Z,0.37
2022-12-26T01:29:15.985Z,0.35
2022-12-26T01:30:48.141Z,0.34
2022-12-26T01:32:20.465Z,0.36
2022-12-26T01:33:52.696Z,0.37
2022-12-26T01:35:24.962Z,0.39
2022-12-26T01:36:57.035Z,0.39
2022-12-26T01:38:29.097Z,0.40
2022-12-26T01:40:01.131Z,0.37
2022-12-26T01:41:33.535Z,0.29
2022-12-26T01:43:12.304Z,0.32
2022-12-26T01:44:56.057Z,0.31
2022-12-26T01:46:48.231Z,0.26
2022-12-26T01:48:26.313Z,0.19
2022-12-26T01:49:58.351Z,0.12
2022-12-26T01:51:32.380Z,0.15
2022-12-26T01:53:17.742Z,0.18
2022-12-26T01:54:52.050Z,0.21
2022-12-26T01:56:38.602Z,0.21
2022-12-26T01:58:13.728Z,0.25
2022-12-26T01:59:46.637Z,0.27
2022-12-26T02:01:19.668Z,0.26
2022-12-26T02:03:10.688Z,0.23
2022-12-26T02:05:06.405Z,0.20
2022-12-26T02:06:38.949Z,0.15
2022-12-26T02:09:48.827Z,0.09
2022-12-26T02:11:27.589Z,0.10
2022-12-26T02:12:59.878Z,0.07
2022-12-26T02:14:32.037Z,0.09
2022-12-26T02:16:05.725Z,0.13
2022-12-26T02:17:39.560Z,0.14
2022-12-26T02:19:28.665Z,0.16
2022-12-26T02:21:14.320Z,0.20
2022-12-26T02:23:04.894Z,0.17
2022-12-26T02:24:59.890Z,0.27
2022-12-26T02:26:46.939Z,0.24
2022-12-26T02:28:33.884Z,0.26
2022-12-26T02:30:28.491Z,0.34
2022-12-26T02:32:18.568Z,0.38
2022-12-26T02:34:08.727Z,0.35
2022-12-26T02:36:16.062Z,0.37
2022-12-26T02:38:03.260Z,0.38
2022-12-26T02:39:53.589Z,0.33
2022-12-26T02:41:42.858Z,0.38
2022-12-26T02:43:51.322Z,0.38
2022-12-26T02:45:50.834Z,0.35
2022-12-26T02:47:32.576Z,0.30
2022-12-26T02:49:18.953Z,0.32
2022-12-26T02:51:45.034Z,0.27
2022-12-26T02:53:38.666Z,0.16
2022-12-26T02:55:38.410Z,0.10
2022-12-26T02:57:32.544Z,0.08
2022-12-26T02:59:56.150Z,0.13
2022-12-26T03:01:51.850Z,0.10
2022-12-26T03:03:46.548Z,0.16
2022-12-26T03:05:44.106Z,0.18
2022-12-26T03:09:24.815Z,0.26
2022-12-26T03:11:15.957Z,0.26
2022-12-26T03:13:11.183Z,0.24
2022-12-26T03:14:47.737Z,0.26
2022-12-26T03:16:39.831Z,0.26
2022-12-26T03:18:12.263Z,0.21
2022-12-26T03:20:02.461Z,0.19
2022-12-26T03:21:40.543Z,0.16
2022-12-26T03:23:15.418Z,0.12
2022-12-26T03:25:06.070Z,0.10
2022-12-26T03:26:44.042Z,0.12
2022-12-26T03:28:16.258Z,0.10
2022-12-26T03:30:08.625Z,0.12
2022-12-26T03:31:40.544Z,0.13
2022-12-26T03:33:31.307Z,0.09
2022-12-26T03:35:13.030Z,0.12
2022-12-26T03:37:22.429Z,0.16
2022-12-26T03:39:12.343Z,0.16
2022-12-26T03:41:13.619Z,0.15
2022-12-26T03:43:42.532Z,0.20
2022-12-26T03:45:59.045Z,0.22
2022-12-26T03:48:11.312Z,0.25
2022-12-26T03:50:06.698Z,0.25
2022-12-26T03:52:20.487Z,0.25
2022-12-26T03:54:35.446Z,0.22
2022-12-26T03:56:41.396Z,0.16
2022-12-26T03:58:36.270Z,0.12
2022-12-26T04:00:29.115Z,0.11
2022-12-26T04:02:24.941Z,0.10
2022-12-26T04:04:17.183Z,0.10
2022-12-26T04:06:08.806Z,0.10
2022-12-26T04:08:03.080Z,0.11
2022-12-26T04:09:58.647Z,0.04
2022-12-26T04:11:49.283Z,0.00
2022-12-26T04:13:48.787Z,0.04
2022-12-26T04:15:48.056Z,-0.01
2022-12-26T04:18:06.950Z,0.00
2022-12-26T04:19:44.864Z,-0.05
2022-12-26T04:21:48.605Z,-0.09
2022-12-26T04:23:50.510Z,-0.13
2022-12-26T04:25:51.457Z,-0.12
2022-12-26T04:27:46.867Z,-0.13
2022-12-26T04:29:37.476Z,-0.14
2022-12-26T04:31:33.220Z,-0.11
2022-12-26T04:33:33.109Z,-0.15
2022-12-26T04:35:29.377Z,-0.17
2022-12-26T04:37:23.178Z,-0.11
2022-12-26T04:39:18.339Z,-0.11
2022-12-26T04:41:13.545Z,-0.12
2022-12-26T04:43:47.063Z,-0.12
2022-12-26T04:44:58.247Z,-0.15
2022-12-26T04:46:31.903Z,-0.16
2022-12-26T04:48:22.265Z,-0.25
2022-12-26T04:50:14.535Z,-0.31
2022-12-26T04:51:46.568Z,-0.32
2022-12-26T04:53:19.400Z,-0.30
2022-12-26T04:54:51.861Z,-0.29
2022-12-26T04:56:24.020Z,-0.29
2022-12-26T04:57:56.208Z,-0.26
2022-12-26T04:59:28.458Z,-0.25
2022-12-26T05:01:20.498Z,-0.24
2022-12-26T05:03:16.386Z,-0.21
2022-12-26T05:05:26.358Z,-0.27
2022-12-26T05:07:17.544Z,-0.29
2022-12-26T05:09:08.539Z,-0.29
2022-12-26T05:10:40.622Z,-0.30
2022-12-26T05:12:12.597Z,-0.31
2022-12-26T05:13:44.637Z,-0.33
2022-12-26T05:15:16.670Z,-0.36
2022-12-26T05:17:07.241Z,-0.35
2022-12-26T05:18:57.817Z,-0.41
2022-12-26T05:20:38.879Z,-0.45
2022-12-26T05:22:34.041Z,-0.43
2022-12-26T05:24:24.823Z,-0.44
2022-12-26T05:26:15.505Z,-0.42
2022-12-26T05:28:06.087Z,-0.42
2022-12-26T05:29:38.425Z,-0.41
2022-12-26T05:31:16.198Z,-0.35
2022-12-26T05:33:06.735Z,-0.36
2022-12-26T05:34:38.837Z,-0.35
2022-12-26T05:36:11.338Z,-0.37
2022-12-26T05:37:43.355Z,-0.41
2022-12-26T05:39:15.582Z,-0.39
2022-12-26T05:40:47.614Z,-0.40
2022-12-26T05:42:19.790Z,-0.40
2022-12-26T05:43:51.995Z,-0.39
2022-12-26T05:45:24.513Z,-0.41
2022-12-26T05:46:57.557Z,-0.38
2022-12-26T05:48:29.696Z,-0.42
2022-12-26T05:50:02.183Z,-0.44
2022-12-26T05:51:34.899Z,-0.41
2022-12-26T05:53:07.087Z,-0.41
2022-12-26T05:54:39.063Z,-0.44
2022-12-26T05:56:14.470Z,-0.44
2022-12-26T05:57:46.546Z,-0.47
2022-12-26T05:59:18.608Z,-0.47
2022-12-26T06:00:50.596Z,-0.47
2022-12-26T06:02:22.762Z,-0.50
2022-12-26T06:03:57.443Z,-0.42
2022-12-26T06:05:29.724Z,-0.51
2022-12-26T06:07:01.688Z,-0.54
2022-12-26T06:08:34.141Z,-0.54
2022-12-26T06:10:06.878Z,-0.55
2022-12-26T06:11:43.780Z,-0.52
2022-12-26T06:13:20.572Z,-0.53
2022-12-26T06:14:52.771Z,-0.52
2022-12-26T06:16:25.041Z,-0.50
2022-12-26T06:17:57.421Z,-0.52
2022-12-26T06:19:29.478Z,-0.51
2022-12-26T06:21:09.316Z,-0.51
2022-12-26T06:22:41.311Z,-0.54
2022-12-26T06:24:14.420Z,-0.53
2022-12-26T06:25:54.018Z,-0.43
2022-12-26T06:27:26.040Z,-0.43
2022-12-26T06:29:00.827Z,-0.35
2022-12-26T06:30:32.986Z,-0.43
2022-12-26T06:32:05.694Z,-0.41
2022-12-26T06:33:38.017Z,-0.40
2022-12-26T06:35:10.184Z,-0.39
2022-12-26T06:36:42.320Z,-0.38
2022-12-26T06:38:14.578Z,-0.35
2022-12-26T06:39:47.118Z,-0.29
2022-12-26T06:41:20.284Z,-0.24
2022-12-26T06:42:52.428Z,-0.19
2022-12-26T06:44:24.488Z,-0.12
2022-12-26T06:45:57.925Z,-0.03
2022-12-26T06:47:30.076Z,0.01
2022-12-26T06:49:02.208Z,0.04
2022-12-26T06:50:36.656Z,0.09
2022-12-26T06:52:08.857Z,0.12
2022-12-26T06:53:41.317Z,0.14
2022-12-26T06:55:13.337Z,0.19
2022-12-26T06:56:45.547Z,0.24
2022-12-26T06:58:17.947Z,0.30
2022-12-26T06:59:49.984Z,0.34
2022-12-26T07:01:23.149Z,0.39
2022-12-26T07:02:55.430Z,0.39
2022-12-26T07:04:27.551Z,0.40
2022-12-26T07:06:07.243Z,0.51
2022-12-26T07:07:39.382Z,0.53
2022-12-26T07:09:15.047Z,0.64
2022-12-26T07:10:47.177Z,0.66
2022-12-26T07:12:22.073Z,0.69
2022-12-26T07:13:54.740Z,0.75
2022-12-26T07:15:26.779Z,0.80
2022-12-26T07:16:58.785Z,0.86
2022-12-26T07:18:30.950Z,0.91
2022-12-26T07:20:04.517Z,1.00
2022-12-26T07:21:40.477Z,1.13
2022-12-26T07:23:13.232Z,1.13
2022-12-26T07:24:45.206Z,1.18
2022-12-26T07:26:17.424Z,1.22
2022-12-26T07:27:53.567Z,1.30
2022-12-26T07:29:25.645Z,1.30
2022-12-26T07:30:59.431Z,1.33
2022-12-26T07:32:31.544Z,1.37
2022-12-26T07:34:03.673Z,1.45
2022-12-26T07:35:35.754Z,1.52
2022-12-26T07:37:07.953Z,1.55
2022-12-26T07:38:39.989Z,1.63
2022-12-26T07:40:12.665Z,1.70
2022-12-26T07:42:00.174Z,1.75
2022-12-26T07:43:32.242Z,1.85
2022-12-26T07:45:07.089Z,1.95
2022-12-26T07:46:40.370Z,2.05
2022-12-26T07:48:12.359Z,2.08
2022-12-26T07:49:44.440Z,2.17
2022-12-26T07:51:16.474Z,2.26
2022-12-26T07:52:49.847Z,2.34
2022-12-26T07:54:21.944Z,2.40
2022-12-26T07:55:53.975Z,2.46
2022-12-26T07:59:18.376Z,2.61
2022-12-26T08:02:23.575Z,2.75
2022-12-26T08:03:55.917Z,2.81
2022-12-26T08:05:28.361Z,2.88
2022-12-26T08:07:00.442Z,2.90
2022-12-26T08:08:32.831Z,2.96
2022-12-26T08:10:05.211Z,3.02
2022-12-26T08:11:37.293Z,3.08
2022-12-26T08:13:09.725Z,3.17
2022-12-26T08:14:42.169Z,3.24
2022-12-26T08:16:15.083Z,3.30
2022-12-26T08:17:47.263Z,3.36
2022-12-26T08:19:19.337Z,3.45
2022-12-26T08:20:54.588Z,3.55
2022-12-26T08:22:27.734Z,3.59
2022-12-26T08:23:59.773Z,3.67
2022-12-26T08:25:31.827Z,3.75
2022-12-26T08:27:04.932Z,3.84
2022-12-26T08:28:37.332Z,3.92
2022-12-26T08:30:10.115Z,4.00
2022-12-26T08:31:42.427Z,4.07
2022-12-26T08:33:14.497Z,4.14
2022-12-26T08:34:46.750Z,4.24
2022-12-26T08:36:19.456Z,4.29
2022-12-26T08:37:51.576Z,4.39
2022-12-26T08:39:23.633Z,4.43
2022-12-26T08:40:59.485Z,4.51
2022-12-26T08:42:31.451Z,4.56
2022-12-26T08:47:27.854Z,4.83
2022-12-26T08:49:00.031Z,4.93
2022-12-26T08:50:36.574Z,4.99
2022-12-26T08:52:12.964Z,5.08
2022-12-26T08:53:46.332Z,5.17
2022-12-26T08:55:18.451Z,5.25
2022-12-26T08:56:50.463Z,5.28
2022-12-26T08:58:22.935Z,5.38
2022-12-26T08:59:55.127Z,5.46
2022-12-26T09:01:29.832Z,5.54
2022-12-26T09:03:02.072Z,5.59
2022-12-26T09:04:34.351Z,5.66
2022-12-26T09:06:06.958Z,5.74
2022-12-26T09:07:39.079Z,5.83
2022-12-26T09:09:13.055Z,5.96
2022-12-26T09:10:45.004Z,5.99
2022-12-26T09:12:17.003Z,6.05
2022-12-26T09:13:49.555Z,6.10
2022-12-26T09:15:21.672Z,6.13
2022-12-26T09:16:54.790Z,6.22
2022-12-26T09:18:27.209Z,6.32
2022-12-26T09:19:59.201Z,6.40
2022-12-26T09:21:31.515Z,6.47
2022-12-26T09:23:03.595Z,6.58
2022-12-26T09:24:35.690Z,6.68
2022-12-26T09:26:09.685Z,6.82
2022-12-26T09:27:41.815Z,6.95
2022-12-26T09:29:15.078Z,7.08
2022-12-26T09:30:47.185Z,7.17
2022-12-26T09:32:19.377Z,7.27
2022-12-26T09:33:52.820Z,7.35
2022-12-26T09:35:24.897Z,7.44
2022-12-26T09:36:57.085Z,7.57
2022-12-26T09:38:29.531Z,7.64
2022-12-26T09:40:01.654Z,7.69
2022-12-26T09:41:36.603Z,7.81
2022-12-26T09:43:38.774Z,7.87
2022-12-26T09:45:16.813Z,7.93
2022-12-26T09:47:07.721Z,7.98
2022-12-26T09:49:02.766Z,8.01
2022-12-26T09:50:42.878Z,8.07
2022-12-26T09:52:23.611Z,8.18
2022-12-26T09:53:55.799Z,8.23
2022-12-26T09:55:37.956Z,8.34
2022-12-26T09:57:17.046Z,8.41
2022-12-26T09:59:17.223Z,8.46
2022-12-26T10:00:54.126Z,8.48
2022-12-26T10:02:26.906Z,8.52
2022-12-26T10:04:01.244Z,8.58
2022-12-26T10:06:08.999Z,8.71
2022-12-26T10:07:52.501Z,8.81
2022-12-26T10:10:05.261Z,8.89
2022-12-26T10:12:04.592Z,8.98
2022-12-26T10:13:47.466Z,9.01
2022-12-26T10:15:42.830Z,9.08
2022-12-26T10:17:24.653Z,9.20
2022-12-26T10:19:14.199Z,9.35
2022-12-26T10:20:55.744Z,9.51
2022-12-26T10:22:49.089Z,9.63
2022-12-26T10:24:23.262Z,9.72
2022-12-26T10:26:01.517Z,9.82
2022-12-26T10:27:40.166Z,9.85
2022-12-26T10:29:14.282Z,9.89
2022-12-26T10:30:47.525Z,9.97
2022-12-26T10:32:27.641Z,10.04
2022-12-26T10:34:18.011Z,10.10
2022-12-26T10:35:50.105Z,10.10
2022-12-26T10:37:41.138Z,10.10
2022-12-26T10:39:27.413Z,10.16
2022-12-26T10:41:06.401Z,10.12
2022-12-26T10:42:43.741Z,10.17
2022-12-26T10:44:16.321Z,10.20
2022-12-26T10:46:03.491Z,10.30
2022-12-26T10:47:40.190Z,10.35
2022-12-26T10:49:13.051Z,10.39
2022-12-26T10:50:48.651Z,10.38
2022-12-26T10:52:24.968Z,10.37
2022-12-26T10:53:57.124Z,10.35
2022-12-26T10:55:34.897Z,10.42
2022-12-26T10:57:08.753Z,10.45
2022-12-26T10:58:40.663Z,10.46
2022-12-26T11:00:25.996Z,10.45
2022-12-26T11:02:14.426Z,10.52
2022-12-26T11:04:01.746Z,10.56
2022-12-26T11:06:06.249Z,10.57
2022-12-26T11:07:32.096Z,10.60
2022-12-26T11:09:05.451Z,10.65
2022-12-26T11:10:37.740Z,10.68
2022-12-26T11:13:00.814Z,10.77
2022-12-26T11:14:37.080Z,10.74
2022-12-26T11:16:10.643Z,10.71
2022-12-26T11:17:44.831Z,10.69
2022-12-26T11:19:28.134Z,10.70
2022-12-26T11:21:14.904Z,10.78
2022-12-26T11:22:47.068Z,10.79
2022-12-26T11:24:20.265Z,10.84
2022-12-26T11:25:57.323Z,10.89
2022-12-26T11:27:29.466Z,10.86
2022-12-26T11:29:21.004Z,10.87
2022-12-26T11:30:53.473Z,10.82
2022-12-26T11:32:25.702Z,10.86
2022-12-26T11:33:59.937Z,10.93
2022-12-26T11:35:37.577Z,10.89
2022-12-26T11:37:24.166Z,10.98
2022-12-26T11:39:05.853Z,11.09
2022-12-26T11:40:39.684Z,11.08
2022-12-26T11:42:13.293Z,11.12
2022-12-26T11:43:45.412Z,11.11
2022-12-26T11:45:23.513Z,11.23
2022-12-26T11:46:57.298Z,11.24
2022-12-26T11:48:29.370Z,11.25
2022-12-26T11:50:05.715Z,11.19
2022-12-26T11:51:43.294Z,11.21
2022-12-26T11:53:21.212Z,11.24
2022-12-26T11:54:53.414Z,11.13
2022-12-26T11:56:26.599Z,11.17
2022-12-26T11:58:10.600Z,11.28
2022-12-26T11:59:42.578Z,11.22
2022-12-26T12:01:17.021Z,11.09
2022-12-26T12:02:49.665Z,11.03
2022-12-26T12:04:21.993Z,11.02
2022-12-26T12:06:31.055Z,11.13
2022-12-26T12:08:13.554Z,11.19
2022-12-26T12:10:07.789Z,11.12
2022-12-26T12:11:49.177Z,11.22
2022-12-26T12:13:43.804Z,11.32
2022-12-26T12:15:30.791Z,11.41
2022-12-26T12:17:26.720Z,11.39
2022-12-26T12:19:20.828Z,11.32
2022-12-26T12:21:07.217Z,11.26
2022-12-26T12:22:48.257Z,11.21
2022-12-26T12:25:01.613Z,11.27
2022-12-26T12:26:38.403Z,11.30
2022-12-26T12:28:24.675Z,11.29
2022-12-26T12:30:35.628Z,11.30
2022-12-26T12:32:18.364Z,11.23
2022-12-26T12:33:59.299Z,11.26
2022-12-26T12:35:50.276Z,11.22
2022-12-26T12:37:47.663Z,11.12
2022-12-26T12:39:50.568Z,11.13
2022-12-26T12:41:40.911Z,11.14
2022-12-26T12:43:38.102Z,11.24
2022-12-26T12:45:39.040Z,11.30
2022-12-26T12:47:33.589Z,11.30
2022-12-26T12:49:17.265Z,11.26
2022-12-26T12:51:07.825Z,11.24
2022-12-26T12:52:56.101Z,11.12
2022-12-26T12:55:03.077Z,11.12
2022-12-26T12:57:16.847Z,11.06
2022-12-26T12:59:13.521Z,11.04
2022-12-26T13:00:51.526Z,10.96
2022-12-26T14:00:16.577Z,10.62
2022-12-26T14:02:00.203Z,10.61
2022-12-26T14:03:52.879Z,10.55
2022-12-26T14:05:28.529Z,10.56
2022-12-26T14:07:09.651Z,10.59
2022-12-26T14:09:20.954Z,10.60
2022-12-26T14:11:36.062Z,10.60
2022-12-26T14:13:46.192Z,10.51
2022-12-26T14:15:41.246Z,10.48
2022-12-26T14:17:34.526Z,10.44
2022-12-26T14:19:36.193Z,10.40
2022-12-26T14:21:27.055Z,10.41
2022-12-26T14:23:17.835Z,10.40
2022-12-26T14:24:55.705Z,10.37
2022-12-26T14:26:45.811Z,10.36
2022-12-26T14:29:59.494Z,10.26
2022-12-26T14:31:49.713Z,10.20
2022-12-26T14:33:40.117Z,10.16
2022-12-26T14:35:38.450Z,10.10
2022-12-26T14:37:10.560Z,9.99
2022-12-26T14:39:17.918Z,9.96
2022-12-26T14:41:09.675Z,9.88
2022-12-26T14:43:12.095Z,9.80
2022-12-26T14:44:44.656Z,9.69
2022-12-26T14:46:31.989Z,9.65
2022-12-26T14:48:28.267Z,9.58
2022-12-26T14:50:32.154Z,9.48
2022-12-26T14:52:26.107Z,9.37
2022-12-26T14:54:27.751Z,9.21
2022-12-26T14:55:59.903Z,9.07
2022-12-26T14:59:34.509Z,8.93
2022-12-26T15:01:09.526Z,8.81
2022-12-26T15:02:45.623Z,8.70
2022-12-26T15:05:05.293Z,8.59
2022-12-26T15:06:55.779Z,8.42
2022-12-26T15:08:55.097Z,8.37
2022-12-26T15:10:48.028Z,8.23
2022-12-26T15:12:58.353Z,8.10
2022-12-26T15:14:39.876Z,7.97
2022-12-26T15:16:56.416Z,7.87
2022-12-26T15:19:03.960Z,7.78
2022-12-26T15:21:05.793Z,7.64
2022-12-26T15:23:00.831Z,7.55
2022-12-26T15:27:30.452Z,7.39
2022-12-26T15:29:34.914Z,7.32
2022-12-26T15:31:37.078Z,7.25
2022-12-26T15:33:21.392Z,7.14
2022-12-26T15:35:17.890Z,7.06
2022-12-26T15:37:01.712Z,6.94
2022-12-26T15:39:15.145Z,6.85
2022-12-26T15:40:56.423Z,6.77
2022-12-26T15:42:46.592Z,6.69
2022-12-26T15:44:29.122Z,6.63
2022-12-26T15:46:30.074Z,6.57
2022-12-26T15:48:32.670Z,6.47
2022-12-26T15:50:15.718Z,6.37
2022-12-26T15:52:07.363Z,6.33
2022-12-26T15:53:51.496Z,6.20
2022-12-26T15:55:29.259Z,6.19
2022-12-26T15:57:14.030Z,6.10
2022-12-26T15:59:09.481Z,6.05
2022-12-26T16:01:00.240Z,5.96
2022-12-26T16:02:37.095Z,5.91
2022-12-26T16:04:29.711Z,5.87
2022-12-26T16:06:19.129Z,5.83
2022-12-26T16:07:56.275Z,5.78
2022-12-26T16:09:47.100Z,5.73
2022-12-26T16:11:22.656Z,5.65
2022-12-26T16:13:00.110Z,5.60
2022-12-26T16:14:39.596Z,5.52
2022-12-26T16:16:11.799Z,5.41
2022-12-26T16:17:44.239Z,5.36
2022-12-26T16:19:24.275Z,5.33
2022-12-26T16:21:17.429Z,5.27
2022-12-26T16:22:49.832Z,5.18
2022-12-26T16:24:22.353Z,5.16
2022-12-26T16:25:57.025Z,5.10
2022-12-26T16:27:30.405Z,5.03
2022-12-26T16:29:02.560Z,4.95
2022-12-26T16:30:37.792Z,4.94
2022-12-26T16:32:14.789Z,4.89
2022-12-26T16:33:47.765Z,4.82
2022-12-26T16:35:39.700Z,4.81
2022-12-26T16:37:18.125Z,4.77
2022-12-26T16:38:51.251Z,4.73
2022-12-26T16:40:46.609Z,4.76
2022-12-26T16:42:39.253Z,4.72
2022-12-26T16:44:30.654Z,4.69
2022-12-26T16:46:06.552Z,4.63
2022-12-26T16:47:38.907Z,4.54
2022-12-26T16:49:11.566Z,4.55
2022-12-26T16:50:51.396Z,4.55
2022-12-26T16:52:40.568Z,4.50
2022-12-26T16:54:20.847Z,4.43
2022-12-26T16:55:57.937Z,4.39
2022-12-26T16:57:29.947Z,4.33
2022-12-26T16:59:07.084Z,4.29
2022-12-26T17:00:39.371Z,4.22
2022-12-26T17:02:24.568Z,4.19
2022-12-26T17:04:00.106Z,4.13
2022-12-26T17:05:34.427Z,4.08
2022-12-26T17:07:08.071Z,4.00
2022-12-26T17:08:43.933Z,3.99
2022-12-26T17:10:25.255Z,3.93
2022-12-26T17:12:03.297Z,3.85
2022-12-26T17:13:35.457Z,3.83
2022-12-26T17:15:08.329Z,3.80
2022-12-26T17:16:40.414Z,3.80
2022-12-26T17:18:37.003Z,3.80
2022-12-26T17:20:24.281Z,3.80
2022-12-26T17:22:18.182Z,3.80
2022-12-26T17:24:10.204Z,3.76
2022-12-26T17:25:47.151Z,3.71
2022-12-26T17:27:26.826Z,3.73
2022-12-26T17:29:00.449Z,3.68
2022-12-26T17:30:32.476Z,3.65
2022-12-26T17:32:12.649Z,3.57
2022-12-26T17:33:48.089Z,3.50
2022-12-26T17:35:26.070Z,3.49
2022-12-26T17:37:19.980Z,3.49
2022-12-26T17:38:52.566Z,3.44
2022-12-26T17:40:31.305Z,3.45
2022-12-26T17:42:03.386Z,3.42
2022-12-26T17:43:38.262Z,3.41
2022-12-26T17:45:18.807Z,3.42
2022-12-26T17:46:50.791Z,3.38
2022-12-26T17:48:22.826Z,3.36
2022-12-26T17:49:56.199Z,3.39
2022-12-26T17:51:30.766Z,3.35
2022-12-26T17:53:08.411Z,3.29
2022-12-26T17:54:40.560Z,3.23
2022-12-26T17:57:44.418Z,3.19
2022-12-26T17:59:16.461Z,3.15
2022-12-26T18:00:49.110Z,3.14
2022-12-26T18:02:22.093Z,3.12
2022-12-26T18:03:54.466Z,3.09
2022-12-26T18:05:27.949Z,3.08
2022-12-26T18:07:00.027Z,2.96
2022-12-26T18:08:37.921Z,2.89
2022-12-26T18:10:25.120Z,2.89
2022-12-26T18:11:57.841Z,2.83
2022-12-26T18:13:30.189Z,2.84
2022-12-26T18:15:02.884Z,2.79
2022-12-26T18:16:35.135Z,2.78
2022-12-26T18:18:29.299Z,2.77
2022-12-26T18:20:03.159Z,2.77
2022-12-26T18:21:35.199Z,2.73
2022-12-26T18:23:10.964Z,2.75
2022-12-26T18:24:43.179Z,2.71
2022-12-26T18:26:21.482Z,2.74
2022-12-26T18:27:53.862Z,2.69
2022-12-26T18:29:25.998Z,2.72
2022-12-26T18:30:58.617Z,2.70
2022-12-26T18:32:33.226Z,2.73
2022-12-26T18:34:05.981Z,2.66
2022-12-26T18:35:42.251Z,2.70
2022-12-26T18:37:14.456Z,2.65
2022-12-26T18:38:46.687Z,2.60
2022-12-26T18:40:47.180Z,2.60
2022-12-26T18:42:19.951Z,2.50
2022-12-26T18:43:52.325Z,2.45
2022-12-26T18:45:24.671Z,2.42
2022-12-26T18:46:56.773Z,2.41
2022-12-26T18:48:28.854Z,2.37
2022-12-26T18:50:00.862Z,2.32
2022-12-26T18:51:32.918Z,2.29
2022-12-26T18:53:05.132Z,2.24
2022-12-26T18:54:37.164Z,2.21
2022-12-26T18:56:15.279Z,2.27
2022-12-26T18:57:47.417Z,2.21
2022-12-26T18:59:19.458Z,2.18
2022-12-26T19:02:30.844Z,2.17
2022-12-26T19:04:02.990Z,2.14
2022-12-26T19:05:35.435Z,2.19
2022-12-26T19:07:07.424Z,2.22
2022-12-26T19:08:39.463Z,2.18
2022-12-26T19:10:11.847Z,2.16
2022-12-26T19:11:43.947Z,2.17
2022-12-26T19:13:16.079Z,2.17
2022-12-26T19:14:48.300Z,2.13
2022-12-26T19:16:20.504Z,2.08
2022-12-26T19:17:52.511Z,2.08
2022-12-26T19:19:26.982Z,2.04
2022-12-26T19:20:59.138Z,1.99
2022-12-26T19:22:31.191Z,1.96
2022-12-26T19:24:03.392Z,1.91
2022-12-26T19:25:35.568Z,1.90
2022-12-26T19:27:07.656Z,1.91
2022-12-26T19:28:39.800Z,1.93
2022-12-26T19:30:12.653Z,1.93
2022-12-26T19:31:44.762Z,1.85
2022-12-26T19:33:16.821Z,1.81
2022-12-26T19:34:49.310Z,1.82
2022-12-26T19:36:21.372Z,1.81
2022-12-26T19:37:53.424Z,1.78
2022-12-26T19:39:25.687Z,1.77
2022-12-26T19:41:05.225Z,1.76
2022-12-26T19:42:38.701Z,1.73
2022-12-26T19:44:11.287Z,1.72
2022-12-26T19:45:43.357Z,1.68
2022-12-26T19:47:15.492Z,1.61
2022-12-26T19:48:47.526Z,1.54
2022-12-26T19:50:19.693Z,1.50
2022-12-26T19:51:51.827Z,1.41
2022-12-26T19:53:23.861Z,1.41
2022-12-26T19:54:56.006Z,1.38
2022-12-26T19:56:29.077Z,1.48
2022-12-26T19:58:01.130Z,1.49
2022-12-26T20:01:14.438Z,1.65
2022-12-26T20:02:46.740Z,1.60
2022-12-26T20:04:18.940Z,1.61
2022-12-26T20:05:50.965Z,1.61
2022-12-26T20:07:23.027Z,1.64
2022-12-26T20:08:58.686Z,1.63
2022-12-26T20:10:30.921Z,1.60
2022-12-26T20:12:03.296Z,1.56
2022-12-26T20:13:36.178Z,1.54
2022-12-26T20:15:08.426Z,1.53
2022-12-26T20:18:35.596Z,1.55
2022-12-26T20:20:07.948Z,1.55
2022-12-26T20:21:39.989Z,1.53
2022-12-26T20:23:11.946Z,1.60
2022-12-26T20:24:44.171Z,1.61
2022-12-26T20:26:21.252Z,1.65
2022-12-26T20:27:53.278Z,1.64
2022-12-26T20:29:25.561Z,1.64
2022-12-26T20:31:17.883Z,1.64
2022-12-26T20:32:49.957Z,1.61
2022-12-26T20:34:22.366Z,1.60
2022-12-26T20:36:05.738Z,1.65
2022-12-26T20:37:37.860Z,1.60
2022-12-26T20:39:14.467Z,1.60
2022-12-26T20:40:50.078Z,1.54
2022-12-26T20:42:22.487Z,1.53
2022-12-26T20:43:55.062Z,1.53
2022-12-26T20:45:27.093Z,1.55
2022-12-26T20:46:59.230Z,1.55
2022-12-26T20:48:31.603Z,1.52
2022-12-26T20:50:05.627Z,1.49
2022-12-26T20:51:39.869Z,1.49
2022-12-26T20:53:11.915Z,1.47
2022-12-26T20:54:43.987Z,1.48
2022-12-26T20:56:16.177Z,1.50
2022-12-26T20:59:23.178Z,1.46
2022-12-26T21:01:07.644Z,1.44
2022-12-26T21:02:39.993Z,1.38
2022-12-26T21:04:23.174Z,1.44
2022-12-26T21:05:55.588Z,1.34
2022-12-26T21:07:27.682Z,1.27
2022-12-26T21:09:00.039Z,1.19
2022-12-26T21:10:32.258Z,1.13
2022-12-26T21:12:04.743Z,1.09
2022-12-26T21:13:37.944Z,1.10
2022-12-26T21:15:10.238Z,1.06
2022-12-26T21:16:53.999Z,1.08
2022-12-26T21:18:26.090Z,1.07
2022-12-26T21:20:01.172Z,1.08
2022-12-26T21:21:35.397Z,1.06
2022-12-26T21:23:07.410Z,1.02
2022-12-26T21:24:39.538Z,0.99
2022-12-26T21:26:12.147Z,0.97
2022-12-26T21:27:45.583Z,0.96
2022-12-26T21:29:30.296Z,1.02
2022-12-26T21:31:02.881Z,1.03
2022-12-26T21:32:35.010Z,1.01
2022-12-26T21:34:07.195Z,0.98
2022-12-26T21:35:39.132Z,0.98
2022-12-26T21:37:30.092Z,0.94
2022-12-26T21:39:07.874Z,1.05
2022-12-26T21:40:43.416Z,1.03
2022-12-26T21:42:15.768Z,0.97
2022-12-26T21:43:48.310Z,0.95
2022-12-26T21:45:20.379Z,0.94
2022-12-26T21:46:52.576Z,0.93
2022-12-26T21:48:25.474Z,0.91
2022-12-26T21:49:57.441Z,0.91
2022-12-26T21:51:30.029Z,0.97
2022-12-26T21:53:02.331Z,0.98
2022-12-26T21:54:53.458Z,1.03
2022-12-26T21:56:25.433Z,1.06
2022-12-26T21:57:59.499Z,1.09
2022-12-26T21:59:50.250Z,1.08
2022-12-26T22:01:23.582Z,1.11
2022-12-26T22:03:14.236Z,1.06
2022-12-26T22:04:46.434Z,1.05
2022-12-26T22:06:18.523Z,1.03
2022-12-26T22:07:54.452Z,1.03
2022-12-26T22:09:26.493Z,0.96
2022-12-26T22:11:16.981Z,0.97
2022-12-26T22:12:57.832Z,0.97
2022-12-26T22:14:30.204Z,0.96
2022-12-26T22:16:09.508Z,1.00
2022-12-26T22:17:41.571Z,0.99
2022-12-26T22:19:13.638Z,0.99
2022-12-26T22:20:46.333Z,0.98
2022-12-26T22:22:18.604Z,0.97
2022-12-26T22:23:51.682Z,0.93
2022-12-26T22:25:23.994Z,0.90
2022-12-26T22:26:59.506Z,0.90
2022-12-26T22:28:31.875Z,0.89
2022-12-26T22:30:05.366Z,0.93
2022-12-26T22:31:38.435Z,0.96
2022-12-26T22:33:10.467Z,0.91
2022-12-26T22:34:42.688Z,0.89
2022-12-26T22:36:14.819Z,0.89
2022-12-26T22:37:47.021Z,0.86
2022-12-26T22:39:19.133Z,0.81
2022-12-26T22:40:56.042Z,0.89
2022-12-26T22:42:30.261Z,0.85
2022-12-26T22:44:02.601Z,0.78
2022-12-26T22:45:34.835Z,0.80
2022-12-26T22:47:06.826Z,0.82
2022-12-26T22:48:39.259Z,0.84
2022-12-26T22:50:16.340Z,0.89
2022-12-26T22:51:48.480Z,0.84
2022-12-26T22:53:23.416Z,0.87
2022-12-26T22:54:55.428Z,0.83
2022-12-26T22:56:28.345Z,0.83
2022-12-26T23:00:07.765Z,0.76
2022-12-26T23:01:32.459Z,0.75
2022-12-26T23:03:04.681Z,0.72
2022-12-26T23:04:37.284Z,0.71
2022-12-26T23:06:25.216Z,0.74
2022-12-26T23:07:57.503Z,0.70
2022-12-26T23:09:29.843Z,0.68
2022-12-26T23:11:02.136Z,0.70
2022-12-26T23:12:46.304Z,0.71
2022-12-26T23:14:18.219Z,0.78
2022-12-26T23:16:04.523Z,0.72
2022-12-26T23:17:56.883Z,0.69
2022-12-26T23:20:02.449Z,0.72